SDG096 LICC-LIRP
Flight info
| Callsign | SDG096 |
|---|---|
| Flight time | 1h 22m |
| Altitude | 34000 |
| Route | PEKOD T111 DELER M729 ELB |
| Aircraft | A321/M-SDE3FGHIRWY/C |
Departure
| Time | 2026-05-07 08:08 |
|---|---|
| Airport | Catania-Fontanarossa Airport (LICC) |
Arrival
| Time | 2026-05-07 09:30 |
|---|---|
| Airport | Pisa International Airport (LIRP) |
| Time | Latitude | Longitude | Altitude | Speed | Heading |
|---|---|---|---|---|---|
| 2026-05-07 08:01 | 37.46865 | 15.05984 | 39 ft | 0 kts | 355° |
| 2026-05-07 08:05 | 37.46866 | 15.05984 | 39 ft | 0 kts | 354° |
| 2026-05-07 08:05 | 37.46869 | 15.05975 | 40 ft | 2 kts | 256° |
| 2026-05-07 08:05 | 37.46829 | 15.05921 | 40 ft | 12 kts | 238° |
| 2026-05-07 08:05 | 37.46793 | 15.05823 | 42 ft | 12 kts | 253° |
| 2026-05-07 08:06 | 37.46775 | 15.05731 | 46 ft | 9 kts | 257° |
| 2026-05-07 08:06 | 37.46761 | 15.05655 | 49 ft | 8 kts | 257° |
| 2026-05-07 08:06 | 37.46752 | 15.05583 | 50 ft | 8 kts | 265° |
| 2026-05-07 08:06 | 37.46738 | 15.05513 | 51 ft | 8 kts | 242° |
| 2026-05-07 08:07 | 37.46697 | 15.05467 | 52 ft | 8 kts | 199° |
| 2026-05-07 08:07 | 37.46632 | 15.05481 | 51 ft | 10 kts | 150° |
| 2026-05-07 08:07 | 37.46593 | 15.05564 | 49 ft | 10 kts | 99° |
| 2026-05-07 08:07 | 37.46599 | 15.05679 | 47 ft | 24 kts | 80° |
| 2026-05-07 08:08 | 37.46658 | 15.06308 | 29 ft | 118 kts | 86° |
| 2026-05-07 08:08 | 37.46760 | 15.07661 | 77 ft | 186 kts | 78° |
| 2026-05-07 08:08 | 37.46908 | 15.09277 | 1157 ft | 189 kts | 77° |
| 2026-05-07 08:08 | 37.47131 | 15.10868 | 2352 ft | 196 kts | 79° |
| 2026-05-07 08:09 | 37.47378 | 15.12581 | 3319 ft | 200 kts | 80° |
| 2026-05-07 08:09 | 37.47626 | 15.14347 | 3829 ft | 213 kts | 82° |
| 2026-05-07 08:09 | 37.47885 | 15.16227 | 4250 ft | 229 kts | 83° |
| 2026-05-07 08:09 | 37.48166 | 15.18290 | 4673 ft | 246 kts | 83° |
| 2026-05-07 08:10 | 37.48459 | 15.20448 | 5181 ft | 259 kts | 83° |
| 2026-05-07 08:10 | 37.48767 | 15.22700 | 5921 ft | 262 kts | 84° |
| 2026-05-07 08:10 | 37.49079 | 15.24966 | 6666 ft | 265 kts | 84° |
| 2026-05-07 08:10 | 37.49413 | 15.27239 | 7372 ft | 270 kts | 78° |
| 2026-05-07 08:11 | 37.50299 | 15.29350 | 8027 ft | 282 kts | 50° |
| 2026-05-07 08:11 | 37.51895 | 15.30893 | 8546 ft | 297 kts | 34° |
| 2026-05-07 08:11 | 37.53680 | 15.32244 | 9132 ft | 304 kts | 33° |
| 2026-05-07 08:11 | 37.55489 | 15.33607 | 9787 ft | 308 kts | 33° |
| 2026-05-07 08:12 | 37.57323 | 15.35013 | 10361 ft | 315 kts | 33° |
| 2026-05-07 08:12 | 37.59242 | 15.36500 | 10683 ft | 331 kts | 32° |
| 2026-05-07 08:12 | 37.61257 | 15.38072 | 10981 ft | 348 kts | 32° |
| 2026-05-07 08:12 | 37.63333 | 15.39696 | 11269 ft | 364 kts | 32° |
| 2026-05-07 08:13 | 37.65547 | 15.41433 | 11557 ft | 380 kts | 32° |
| 2026-05-07 08:13 | 37.67833 | 15.43228 | 11834 ft | 396 kts | 32° |
| 2026-05-07 08:13 | 37.70328 | 15.44862 | 12149 ft | 409 kts | 16° |
| 2026-05-07 08:13 | 37.73115 | 15.45317 | 12747 ft | 407 kts | 353° |
| 2026-05-07 08:14 | 37.75845 | 15.44491 | 13480 ft | 401 kts | 335° |
| 2026-05-07 08:14 | 37.78410 | 15.43179 | 14061 ft | 405 kts | 333° |
| 2026-05-07 08:14 | 37.81017 | 15.41788 | 14579 ft | 411 kts | 333° |
| 2026-05-07 08:14 | 37.83682 | 15.40393 | 15169 ft | 415 kts | 333° |
| 2026-05-07 08:15 | 37.86365 | 15.39021 | 15784 ft | 418 kts | 334° |
| 2026-05-07 08:15 | 37.89052 | 15.37667 | 16368 ft | 421 kts | 334° |
| 2026-05-07 08:15 | 37.91765 | 15.36305 | 16937 ft | 423 kts | 334° |
| 2026-05-07 08:15 | 37.94504 | 15.34929 | 17489 ft | 426 kts | 334° |
| 2026-05-07 08:16 | 37.97247 | 15.33550 | 18022 ft | 429 kts | 334° |
| 2026-05-07 08:16 | 38.00058 | 15.32135 | 18539 ft | 433 kts | 334° |
| 2026-05-07 08:16 | 38.02826 | 15.30740 | 19004 ft | 437 kts | 334° |
| 2026-05-07 08:16 | 38.05662 | 15.29310 | 19483 ft | 440 kts | 334° |
| 2026-05-07 08:17 | 38.08525 | 15.27866 | 19959 ft | 443 kts | 334° |
| 2026-05-07 08:17 | 38.11385 | 15.26425 | 20408 ft | 446 kts | 334° |
| 2026-05-07 08:17 | 38.14263 | 15.24981 | 20862 ft | 449 kts | 334° |
| 2026-05-07 08:17 | 38.17184 | 15.23514 | 21297 ft | 452 kts | 334° |
| 2026-05-07 08:18 | 38.20085 | 15.22052 | 21718 ft | 455 kts | 335° |
| 2026-05-07 08:18 | 38.23039 | 15.20559 | 22142 ft | 457 kts | 335° |
| 2026-05-07 08:18 | 38.25999 | 15.19060 | 22536 ft | 460 kts | 335° |
| 2026-05-07 08:18 | 38.28975 | 15.17548 | 22926 ft | 463 kts | 335° |
| 2026-05-07 08:19 | 38.31977 | 15.16023 | 23313 ft | 466 kts | 335° |
| 2026-05-07 08:19 | 38.34971 | 15.14500 | 23692 ft | 468 kts | 335° |
| 2026-05-07 08:19 | 38.37992 | 15.12962 | 24066 ft | 471 kts | 335° |
| 2026-05-07 08:19 | 38.41048 | 15.11406 | 24431 ft | 473 kts | 335° |
| 2026-05-07 08:20 | 38.44087 | 15.09857 | 24791 ft | 475 kts | 335° |
| 2026-05-07 08:20 | 38.47147 | 15.08296 | 25151 ft | 477 kts | 335° |
| 2026-05-07 08:20 | 38.50217 | 15.06729 | 25493 ft | 479 kts | 335° |
| 2026-05-07 08:20 | 38.53326 | 15.05142 | 25828 ft | 481 kts | 335° |
| 2026-05-07 08:21 | 38.56432 | 15.03554 | 26261 ft | 480 kts | 334° |
| 2026-05-07 08:21 | 38.59516 | 15.01978 | 26754 ft | 478 kts | 334° |
| 2026-05-07 08:21 | 38.62581 | 15.00410 | 27211 ft | 476 kts | 334° |
| 2026-05-07 08:21 | 38.65645 | 14.98839 | 27617 ft | 476 kts | 334° |
| 2026-05-07 08:22 | 38.68700 | 14.97271 | 28006 ft | 475 kts | 334° |
| 2026-05-07 08:22 | 38.71754 | 14.95701 | 28393 ft | 474 kts | 334° |
| 2026-05-07 08:22 | 38.74793 | 14.94136 | 28777 ft | 473 kts | 334° |
| 2026-05-07 08:22 | 38.77841 | 14.92567 | 29136 ft | 473 kts | 334° |
| 2026-05-07 08:23 | 38.80896 | 14.90993 | 29494 ft | 472 kts | 334° |
| 2026-05-07 08:23 | 38.83936 | 14.89424 | 29836 ft | 472 kts | 334° |
| 2026-05-07 08:23 | 38.86977 | 14.87855 | 30159 ft | 472 kts | 333° |
| 2026-05-07 08:23 | 38.89998 | 14.86295 | 30499 ft | 471 kts | 333° |
| 2026-05-07 08:24 | 38.93019 | 14.84735 | 30882 ft | 468 kts | 333° |
| 2026-05-07 08:24 | 38.96028 | 14.83180 | 31278 ft | 466 kts | 333° |
| 2026-05-07 08:24 | 38.99015 | 14.81635 | 31664 ft | 463 kts | 332° |
| 2026-05-07 08:24 | 39.01958 | 14.80110 | 32023 ft | 461 kts | 332° |
| 2026-05-07 08:25 | 39.04957 | 14.78554 | 32368 ft | 459 kts | 332° |
| 2026-05-07 08:25 | 39.07903 | 14.77023 | 32694 ft | 457 kts | 332° |
| 2026-05-07 08:25 | 39.10830 | 14.75500 | 33006 ft | 456 kts | 332° |
| 2026-05-07 08:25 | 39.13750 | 14.73987 | 33290 ft | 454 kts | 331° |
| 2026-05-07 08:26 | 39.19585 | 14.70960 | 33813 ft | 453 kts | 331° |
| 2026-05-07 08:26 | 39.22529 | 14.69424 | 33989 ft | 453 kts | 331° |
| 2026-05-07 08:26 | 39.25412 | 14.67918 | 33989 ft | 453 kts | 331° |
| 2026-05-07 08:27 | 39.31250 | 14.64859 | 33995 ft | 455 kts | 331° |
| 2026-05-07 08:27 | 39.37105 | 14.61789 | 33995 ft | 457 kts | 332° |
| 2026-05-07 08:28 | 39.42996 | 14.58695 | 33996 ft | 459 kts | 332° |
| 2026-05-07 08:28 | 39.48884 | 14.55596 | 33994 ft | 461 kts | 332° |
| 2026-05-07 08:29 | 39.54836 | 14.52459 | 33996 ft | 463 kts | 332° |
| 2026-05-07 08:29 | 39.60693 | 14.49155 | 34003 ft | 463 kts | 330° |
| 2026-05-07 08:30 | 39.66576 | 14.45697 | 34019 ft | 465 kts | 330° |
| 2026-05-07 08:30 | 39.72463 | 14.42231 | 34036 ft | 466 kts | 330° |
| 2026-05-07 08:31 | 39.78345 | 14.38768 | 34045 ft | 468 kts | 330° |
| 2026-05-07 08:31 | 39.84291 | 14.35262 | 34048 ft | 469 kts | 331° |
| 2026-05-07 08:32 | 39.90183 | 14.31762 | 34048 ft | 469 kts | 330° |
| 2026-05-07 08:32 | 39.96132 | 14.28223 | 34049 ft | 470 kts | 330° |
| 2026-05-07 08:33 | 40.02041 | 14.24717 | 34048 ft | 471 kts | 330° |
| 2026-05-07 08:33 | 40.08020 | 14.21168 | 34049 ft | 472 kts | 330° |
| 2026-05-07 08:34 | 40.13366 | 14.17679 | 34048 ft | 468 kts | 324° |
| 2026-05-07 08:34 | 40.18671 | 14.12914 | 34049 ft | 462 kts | 315° |
| 2026-05-07 08:35 | 40.23294 | 14.07215 | 34045 ft | 456 kts | 307° |
| 2026-05-07 08:35 | 40.27345 | 14.00849 | 34041 ft | 454 kts | 303° |
| 2026-05-07 08:36 | 40.31286 | 13.94431 | 34040 ft | 453 kts | 303° |
| 2026-05-07 08:36 | 40.35065 | 13.88274 | 34044 ft | 453 kts | 303° |
| 2026-05-07 08:37 | 40.38989 | 13.81881 | 34047 ft | 453 kts | 303° |
| 2026-05-07 08:37 | 40.42931 | 13.75454 | 34049 ft | 453 kts | 304° |
| 2026-05-07 08:38 | 40.46875 | 13.69036 | 34049 ft | 453 kts | 304° |
| 2026-05-07 08:38 | 40.50818 | 13.62602 | 34049 ft | 452 kts | 304° |
| 2026-05-07 08:39 | 40.54739 | 13.56189 | 34049 ft | 452 kts | 303° |
| 2026-05-07 08:39 | 40.58645 | 13.49770 | 34049 ft | 451 kts | 304° |
| 2026-05-07 08:40 | 40.62555 | 13.43327 | 34049 ft | 451 kts | 304° |
| 2026-05-07 08:40 | 40.66451 | 13.36891 | 34049 ft | 451 kts | 304° |
| 2026-05-07 08:41 | 40.70363 | 13.30404 | 34049 ft | 450 kts | 303° |
| 2026-05-07 08:41 | 40.74225 | 13.23987 | 34049 ft | 450 kts | 303° |
| 2026-05-07 08:42 | 40.78117 | 13.17520 | 34049 ft | 450 kts | 303° |
| 2026-05-07 08:42 | 40.81988 | 13.11080 | 34049 ft | 449 kts | 303° |
| 2026-05-07 08:43 | 40.85858 | 13.04628 | 34049 ft | 449 kts | 303° |
| 2026-05-07 08:43 | 40.89730 | 12.98170 | 34048 ft | 449 kts | 304° |
| 2026-05-07 08:44 | 40.93902 | 12.92023 | 34050 ft | 453 kts | 309° |
| 2026-05-07 08:44 | 40.98285 | 12.86093 | 34049 ft | 452 kts | 309° |
| 2026-05-07 08:45 | 41.02683 | 12.80154 | 34049 ft | 452 kts | 309° |
| 2026-05-07 08:45 | 41.07070 | 12.74202 | 34049 ft | 452 kts | 309° |
| 2026-05-07 08:46 | 41.11453 | 12.68245 | 34047 ft | 452 kts | 309° |
| 2026-05-07 08:46 | 41.15843 | 12.62296 | 34049 ft | 451 kts | 309° |
| 2026-05-07 08:47 | 41.20206 | 12.56337 | 34049 ft | 451 kts | 309° |
| 2026-05-07 08:47 | 41.24551 | 12.50395 | 34049 ft | 451 kts | 309° |
| 2026-05-07 08:48 | 41.28915 | 12.44426 | 34049 ft | 450 kts | 309° |
| 2026-05-07 08:48 | 41.33253 | 12.38471 | 34049 ft | 450 kts | 309° |
| 2026-05-07 08:49 | 41.37596 | 12.32485 | 34049 ft | 449 kts | 308° |
| 2026-05-07 08:49 | 41.41913 | 12.26506 | 34049 ft | 449 kts | 309° |
| 2026-05-07 08:50 | 41.46227 | 12.20534 | 34049 ft | 449 kts | 309° |
| 2026-05-07 08:50 | 41.50568 | 12.14524 | 34049 ft | 449 kts | 309° |
| 2026-05-07 08:51 | 41.54870 | 12.08569 | 34049 ft | 447 kts | 309° |
| 2026-05-07 08:51 | 41.59144 | 12.02641 | 34049 ft | 447 kts | 309° |
| 2026-05-07 08:52 | 41.63442 | 11.96660 | 34049 ft | 447 kts | 309° |
| 2026-05-07 08:52 | 41.67748 | 11.90658 | 34049 ft | 446 kts | 309° |
| 2026-05-07 08:53 | 41.72035 | 11.84662 | 34049 ft | 446 kts | 308° |
| 2026-05-07 08:53 | 41.76295 | 11.78647 | 34049 ft | 446 kts | 308° |
| 2026-05-07 08:54 | 41.80553 | 11.72623 | 34049 ft | 446 kts | 308° |
| 2026-05-07 08:54 | 41.84808 | 11.66628 | 34049 ft | 446 kts | 309° |
| 2026-05-07 08:55 | 41.89094 | 11.60590 | 34049 ft | 446 kts | 309° |
| 2026-05-07 08:55 | 41.93330 | 11.54606 | 34049 ft | 446 kts | 309° |
| 2026-05-07 08:56 | 41.97585 | 11.48583 | 34049 ft | 446 kts | 308° |
| 2026-05-07 08:56 | 42.01837 | 11.42552 | 34048 ft | 445 kts | 308° |
| 2026-05-07 08:57 | 42.06101 | 11.36486 | 34050 ft | 445 kts | 308° |
| 2026-05-07 08:57 | 42.10276 | 11.30519 | 34049 ft | 444 kts | 307° |
| 2026-05-07 08:58 | 42.14542 | 11.24442 | 33988 ft | 445 kts | 307° |
| 2026-05-07 08:58 | 42.16665 | 11.21416 | 33729 ft | 444 kts | 307° |
| 2026-05-07 08:58 | 42.18766 | 11.18415 | 33479 ft | 439 kts | 307° |
| 2026-05-07 08:59 | 42.20832 | 11.15464 | 33228 ft | 428 kts | 307° |
| 2026-05-07 08:59 | 42.22850 | 11.12576 | 32977 ft | 418 kts | 307° |
| 2026-05-07 08:59 | 42.24823 | 11.09749 | 32725 ft | 409 kts | 306° |
| 2026-05-07 08:59 | 42.26732 | 11.07002 | 32480 ft | 403 kts | 306° |
| 2026-05-07 09:00 | 42.28645 | 11.04238 | 32222 ft | 405 kts | 306° |
| 2026-05-07 09:00 | 42.30558 | 11.01471 | 31870 ft | 406 kts | 306° |
| 2026-05-07 09:00 | 42.32492 | 10.98676 | 31329 ft | 407 kts | 306° |
| 2026-05-07 09:00 | 42.34410 | 10.95907 | 30690 ft | 407 kts | 306° |
| 2026-05-07 09:01 | 42.36348 | 10.93107 | 29989 ft | 408 kts | 306° |
| 2026-05-07 09:01 | 42.38289 | 10.90299 | 29267 ft | 410 kts | 306° |
| 2026-05-07 09:01 | 42.40208 | 10.87526 | 28552 ft | 412 kts | 306° |
| 2026-05-07 09:01 | 42.42186 | 10.84664 | 27793 ft | 413 kts | 306° |
| 2026-05-07 09:02 | 42.44134 | 10.81841 | 27036 ft | 415 kts | 306° |
| 2026-05-07 09:02 | 42.46089 | 10.79006 | 26263 ft | 416 kts | 307° |
| 2026-05-07 09:02 | 42.48066 | 10.76141 | 25477 ft | 417 kts | 307° |
| 2026-05-07 09:02 | 42.50030 | 10.73289 | 24643 ft | 419 kts | 307° |
| 2026-05-07 09:03 | 42.52028 | 10.70383 | 23962 ft | 421 kts | 307° |
| 2026-05-07 09:03 | 42.54002 | 10.67509 | 23419 ft | 423 kts | 307° |
| 2026-05-07 09:03 | 42.55962 | 10.64660 | 22879 ft | 406 kts | 307° |
| 2026-05-07 09:03 | 42.57835 | 10.61943 | 22374 ft | 386 kts | 307° |
| 2026-05-07 09:04 | 42.59618 | 10.59348 | 21882 ft | 368 kts | 307° |
| 2026-05-07 09:04 | 42.61325 | 10.56856 | 21413 ft | 352 kts | 307° |
| 2026-05-07 09:04 | 42.62954 | 10.54472 | 20966 ft | 338 kts | 307° |
| 2026-05-07 09:04 | 42.64532 | 10.52151 | 20525 ft | 338 kts | 307° |
| 2026-05-07 09:05 | 42.66131 | 10.49793 | 20049 ft | 341 kts | 307° |
| 2026-05-07 09:05 | 42.67742 | 10.47423 | 19596 ft | 341 kts | 307° |
| 2026-05-07 09:05 | 42.69347 | 10.45065 | 19160 ft | 341 kts | 307° |
| 2026-05-07 09:05 | 42.71007 | 10.42760 | 18715 ft | 346 kts | 314° |
| 2026-05-07 09:06 | 42.72986 | 10.40863 | 18284 ft | 354 kts | 327° |
| 2026-05-07 09:06 | 42.75244 | 10.39548 | 17881 ft | 361 kts | 339° |
| 2026-05-07 09:06 | 42.77725 | 10.38870 | 17487 ft | 366 kts | 349° |
| 2026-05-07 09:06 | 42.80235 | 10.38524 | 17126 ft | 366 kts | 351° |
| 2026-05-07 09:07 | 42.82822 | 10.38212 | 16744 ft | 382 kts | 352° |
| 2026-05-07 09:07 | 42.85504 | 10.37878 | 16287 ft | 387 kts | 352° |
| 2026-05-07 09:07 | 42.88146 | 10.37540 | 15842 ft | 386 kts | 351° |
| 2026-05-07 09:07 | 42.90814 | 10.37189 | 15351 ft | 386 kts | 351° |
| 2026-05-07 09:08 | 42.93487 | 10.36829 | 14852 ft | 385 kts | 351° |
| 2026-05-07 09:08 | 42.96111 | 10.36473 | 14352 ft | 384 kts | 351° |
| 2026-05-07 09:08 | 42.98710 | 10.36121 | 13857 ft | 367 kts | 351° |
| 2026-05-07 09:08 | 43.01167 | 10.35789 | 13420 ft | 348 kts | 351° |
| 2026-05-07 09:09 | 43.03480 | 10.35477 | 13307 ft | 321 kts | 351° |
| 2026-05-07 09:09 | 43.05633 | 10.35183 | 13185 ft | 303 kts | 350° |
| 2026-05-07 09:09 | 43.07737 | 10.34885 | 13071 ft | 305 kts | 349° |
| 2026-05-07 09:09 | 43.09811 | 10.34582 | 12957 ft | 303 kts | 349° |
| 2026-05-07 09:10 | 43.11945 | 10.34278 | 12849 ft | 303 kts | 349° |
| 2026-05-07 09:10 | 43.14036 | 10.33986 | 12753 ft | 302 kts | 350° |
| 2026-05-07 09:10 | 43.16103 | 10.33699 | 12673 ft | 300 kts | 350° |
| 2026-05-07 09:10 | 43.18170 | 10.33415 | 12556 ft | 299 kts | 350° |
| 2026-05-07 09:11 | 43.20250 | 10.33128 | 12181 ft | 299 kts | 350° |
| 2026-05-07 09:11 | 43.22313 | 10.32842 | 11840 ft | 296 kts | 350° |
| 2026-05-07 09:11 | 43.24336 | 10.32561 | 11507 ft | 294 kts | 351° |
| 2026-05-07 09:11 | 43.26355 | 10.32307 | 11167 ft | 293 kts | 355° |
| 2026-05-07 09:12 | 43.28332 | 10.32794 | 11074 ft | 292 kts | 20° |
| 2026-05-07 09:12 | 43.30077 | 10.34254 | 11073 ft | 297 kts | 34° |
| 2026-05-07 09:12 | 43.31715 | 10.35979 | 11065 ft | 297 kts | 36° |
| 2026-05-07 09:12 | 43.33345 | 10.37706 | 11007 ft | 291 kts | 35° |
| 2026-05-07 09:13 | 43.34917 | 10.39348 | 10772 ft | 285 kts | 34° |
| 2026-05-07 09:13 | 43.36502 | 10.40983 | 10503 ft | 280 kts | 34° |
| 2026-05-07 09:13 | 43.38035 | 10.42561 | 10165 ft | 270 kts | 34° |
| 2026-05-07 09:13 | 43.39515 | 10.44083 | 10097 ft | 269 kts | 34° |
| 2026-05-07 09:14 | 43.41010 | 10.45622 | 10067 ft | 269 kts | 34° |
| 2026-05-07 09:14 | 43.42527 | 10.47185 | 9762 ft | 272 kts | 35° |
| 2026-05-07 09:14 | 43.44017 | 10.48718 | 9441 ft | 270 kts | 35° |
| 2026-05-07 09:14 | 43.45517 | 10.50262 | 9131 ft | 268 kts | 35° |
| 2026-05-07 09:15 | 43.47026 | 10.51775 | 8803 ft | 267 kts | 28° |
| 2026-05-07 09:15 | 43.48740 | 10.52435 | 8456 ft | 258 kts | 352° |
| 2026-05-07 09:15 | 43.50378 | 10.51658 | 8141 ft | 248 kts | 319° |
| 2026-05-07 09:15 | 43.51523 | 10.49924 | 7854 ft | 243 kts | 302° |
| 2026-05-07 09:16 | 43.52491 | 10.48033 | 7559 ft | 242 kts | 302° |
| 2026-05-07 09:16 | 43.53473 | 10.46142 | 7262 ft | 241 kts | 301° |
| 2026-05-07 09:16 | 43.54073 | 10.44060 | 6923 ft | 235 kts | 270° |
| 2026-05-07 09:16 | 43.53734 | 10.41894 | 6713 ft | 238 kts | 239° |
| 2026-05-07 09:17 | 43.52607 | 10.40256 | 6390 ft | 236 kts | 217° |
| 2026-05-07 09:17 | 43.51329 | 10.38988 | 6095 ft | 235 kts | 216° |
| 2026-05-07 09:17 | 43.50009 | 10.37674 | 5802 ft | 234 kts | 216° |
| 2026-05-07 09:17 | 43.48703 | 10.36354 | 5516 ft | 232 kts | 216° |
| 2026-05-07 09:18 | 43.47406 | 10.35032 | 5227 ft | 231 kts | 217° |
| 2026-05-07 09:18 | 43.46131 | 10.33730 | 5017 ft | 226 kts | 217° |
| 2026-05-07 09:18 | 43.44896 | 10.32466 | 5013 ft | 216 kts | 217° |
| 2026-05-07 09:18 | 43.43717 | 10.31259 | 4795 ft | 214 kts | 217° |
| 2026-05-07 09:19 | 43.42545 | 10.30057 | 4559 ft | 206 kts | 216° |
| 2026-05-07 09:19 | 43.41410 | 10.28893 | 4248 ft | 201 kts | 216° |
| 2026-05-07 09:19 | 43.40315 | 10.27772 | 4058 ft | 190 kts | 216° |
| 2026-05-07 09:19 | 43.39305 | 10.26738 | 4001 ft | 171 kts | 216° |
| 2026-05-07 09:20 | 43.38393 | 10.25805 | 3987 ft | 158 kts | 216° |
| 2026-05-07 09:20 | 43.37505 | 10.24899 | 4014 ft | 160 kts | 216° |
| 2026-05-07 09:20 | 43.36667 | 10.23889 | 4005 ft | 160 kts | 232° |
| 2026-05-07 09:20 | 43.36197 | 10.22514 | 4015 ft | 162 kts | 257° |
| 2026-05-07 09:21 | 43.36196 | 10.20965 | 4016 ft | 163 kts | 282° |
| 2026-05-07 09:21 | 43.36671 | 10.19551 | 4020 ft | 165 kts | 304° |
| 2026-05-07 09:21 | 43.37364 | 10.18296 | 4018 ft | 165 kts | 306° |
| 2026-05-07 09:21 | 43.38066 | 10.17035 | 4016 ft | 165 kts | 306° |
| 2026-05-07 09:22 | 43.38751 | 10.15788 | 4016 ft | 165 kts | 305° |
| 2026-05-07 09:22 | 43.39440 | 10.14526 | 4016 ft | 165 kts | 305° |
| 2026-05-07 09:22 | 43.40243 | 10.13399 | 4009 ft | 166 kts | 327° |
| 2026-05-07 09:22 | 43.41326 | 10.12922 | 4004 ft | 167 kts | 4° |
| 2026-05-07 09:23 | 43.42445 | 10.13384 | 4033 ft | 169 kts | 25° |
| 2026-05-07 09:23 | 43.43481 | 10.14151 | 4026 ft | 168 kts | 31° |
| 2026-05-07 09:23 | 43.44424 | 10.14982 | 4009 ft | 159 kts | 34° |
| 2026-05-07 09:23 | 43.45345 | 10.15843 | 4016 ft | 158 kts | 35° |
| 2026-05-07 09:24 | 43.46250 | 10.16707 | 4016 ft | 158 kts | 35° |
| 2026-05-07 09:24 | 43.47144 | 10.17576 | 4017 ft | 158 kts | 36° |
| 2026-05-07 09:24 | 43.48036 | 10.18454 | 4011 ft | 158 kts | 36° |
| 2026-05-07 09:24 | 43.48930 | 10.19348 | 3953 ft | 159 kts | 36° |
| 2026-05-07 09:25 | 43.49824 | 10.20249 | 3795 ft | 157 kts | 37° |
| 2026-05-07 09:25 | 43.50704 | 10.21144 | 3670 ft | 156 kts | 37° |
| 2026-05-07 09:25 | 43.51566 | 10.22026 | 3545 ft | 156 kts | 37° |
| 2026-05-07 09:25 | 43.52440 | 10.22925 | 3530 ft | 156 kts | 37° |
| 2026-05-07 09:26 | 43.53310 | 10.23824 | 3417 ft | 157 kts | 37° |
| 2026-05-07 09:26 | 43.54169 | 10.24712 | 3213 ft | 154 kts | 38° |
| 2026-05-07 09:26 | 43.55021 | 10.25595 | 3017 ft | 154 kts | 38° |
| 2026-05-07 09:26 | 43.55880 | 10.26487 | 2814 ft | 153 kts | 38° |
| 2026-05-07 09:27 | 43.56731 | 10.27370 | 2615 ft | 152 kts | 37° |
| 2026-05-07 09:27 | 43.57572 | 10.28242 | 2416 ft | 152 kts | 37° |
| 2026-05-07 09:27 | 43.59251 | 10.29984 | 2016 ft | 151 kts | 37° |
| 2026-05-07 09:28 | 43.60097 | 10.30861 | 1814 ft | 150 kts | 37° |
| 2026-05-07 09:28 | 43.60926 | 10.31720 | 1617 ft | 150 kts | 37° |
| 2026-05-07 09:28 | 43.61767 | 10.32591 | 1413 ft | 151 kts | 36° |
| 2026-05-07 09:28 | 43.62602 | 10.33455 | 1218 ft | 150 kts | 35° |
| 2026-05-07 09:29 | 43.63428 | 10.34309 | 1018 ft | 148 kts | 35° |
| 2026-05-07 09:29 | 43.64258 | 10.35168 | 816 ft | 147 kts | 35° |
| 2026-05-07 09:29 | 43.65068 | 10.36005 | 623 ft | 146 kts | 35° |
| 2026-05-07 09:29 | 43.65878 | 10.36842 | 429 ft | 146 kts | 35° |
| 2026-05-07 09:30 | 43.66689 | 10.37680 | 237 ft | 146 kts | 35° |
| 2026-05-07 09:30 | 43.67500 | 10.38518 | 44 ft | 145 kts | 35° |
| 2026-05-07 09:30 | 43.68226 | 10.39271 | 9 ft | 98 kts | 36° |
| 2026-05-07 09:30 | 43.68557 | 10.39611 | 9 ft | 24 kts | 36° |
| 2026-05-07 09:31 | 43.68670 | 10.39723 | 9 ft | 20 kts | 33° |
| 2026-05-07 09:31 | 43.68751 | 10.39764 | 9 ft | 7 kts | 352° |
| 2026-05-07 09:31 | 43.68788 | 10.39703 | 9 ft | 4 kts | 297° |
| 2026-05-07 09:31 | 43.68800 | 10.39671 | 9 ft | 0 kts | 296° |
| 2026-05-07 09:32 | 43.68800 | 10.39668 | 9 ft | 0 kts | 296° |
| 2026-05-07 09:32 | 43.68805 | 10.39657 | 9 ft | 1 kts | 301° |
| 2026-05-07 09:32 | 43.68826 | 10.39624 | 9 ft | 5 kts | 321° |
| 2026-05-07 09:33 | 43.68867 | 10.39620 | 9 ft | 7 kts | 23° |
| 2026-05-07 09:33 | 43.68917 | 10.39657 | 9 ft | 9 kts | 30° |
| 2026-05-07 09:33 | 43.68976 | 10.39713 | 9 ft | 11 kts | 36° |
| 2026-05-07 09:33 | 43.69039 | 10.39786 | 9 ft | 12 kts | 47° |
| 2026-05-07 09:34 | 43.69118 | 10.39849 | 9 ft | 13 kts | 21° |
| 2026-05-07 09:34 | 43.69209 | 10.39902 | 9 ft | 14 kts | 11° |
| 2026-05-07 09:34 | 43.69313 | 10.39886 | 9 ft | 15 kts | 354° |
| 2026-05-07 09:34 | 43.69426 | 10.39888 | 9 ft | 16 kts | 5° |
| 2026-05-07 09:35 | 43.69541 | 10.39911 | 10 ft | 16 kts | 11° |
| 2026-05-07 09:35 | 43.69647 | 10.39915 | 12 ft | 8 kts | 332° |
| 2026-05-07 09:35 | 43.69687 | 10.39847 | 12 ft | 9 kts | 311° |
| 2026-05-07 09:35 | 43.69743 | 10.39790 | 12 ft | 2 kts | 324° |
| 2026-05-07 09:36 | 43.69744 | 10.39790 | 12 ft | 0 kts | 324° |